Time;durP1;ratioP1;P1;durP2;ratioP2;P2;SDS_P1;SDS_P2;PMS_P1;PMS_P2;Temp;Humidity;BMP_temperature;BMP_pressure;BME280_temperature;BME280_humidity;BME280_pressure;Samples;Min_cycle;Max_cycle;Signal;HPM_P1;HPM_P2
2023/05/31 00:01:11;;;;;;;12.23;11.50;;;11.50;99.90;;;;;;4812134;29;20681;-51
2023/05/31 00:03:40;;;;;;;12.40;11.77;;;11.50;99.90;;;;;;4808740;29;20198;-43
2023/05/31 00:06:10;;;;;;;12.50;11.90;;;11.40;99.90;;;;;;4809533;29;20680;-44
2023/05/31 00:08:35;;;;;;;12.47;11.87;;;11.30;99.90;;;;;;4810669;29;20443;-51
2023/05/31 00:11:01;;;;;;;12.63;11.93;;;11.30;99.90;;;;;;4812032;29;20430;-41
2023/05/31 00:13:27;;;;;;;12.40;11.70;;;11.30;99.90;;;;;;4810409;29;20218;-43
2023/05/31 00:15:52;;;;;;;11.83;11.23;;;11.20;99.90;;;;;;4812270;29;20319;-42
2023/05/31 00:18:18;;;;;;;12.53;11.63;;;11.20;99.90;;;;;;4811865;29;20438;-47
2023/05/31 00:20:43;;;;;;;12.77;11.87;;;11.20;99.90;;;;;;4812037;29;20696;-42
2023/05/31 00:23:10;;;;;;;12.43;11.70;;;11.20;99.90;;;;;;4811601;29;20245;-42
2023/05/31 00:25:35;;;;;;;12.17;11.50;;;11.10;99.90;;;;;;4811282;29;20751;-42
2023/05/31 00:28:01;;;;;;;12.57;11.77;;;11.10;99.90;;;;;;4810918;29;20450;-44
2023/05/31 00:30:26;;;;;;;12.47;11.67;;;11.10;99.90;;;;;;4811650;29;20189;-43
2023/05/31 00:32:52;;;;;;;12.87;12.13;;;11.00;99.90;;;;;;4811579;29;20200;-43
2023/05/31 00:35:18;;;;;;;12.33;11.63;;;11.00;99.90;;;;;;4811161;29;20280;-43
2023/05/31 00:37:43;;;;;;;12.60;11.93;;;10.90;99.90;;;;;;4811085;29;20207;-43
2023/05/31 00:40:09;;;;;;;12.47;11.80;;;10.90;99.90;;;;;;4811123;29;20189;-42
2023/05/31 00:42:35;;;;;;;12.60;11.90;;;10.90;99.90;;;;;;4810311;29;20465;-43
2023/05/31 00:45:01;;;;;;;12.43;11.83;;;10.80;99.90;;;;;;4811941;29;20945;-45
2023/05/31 00:47:27;;;;;;;11.90;11.20;;;10.70;99.90;;;;;;4811125;29;20680;-47
2023/05/31 00:49:54;;;;;;;12.67;11.87;;;10.70;99.90;;;;;;4810859;29;20192;-43
2023/05/31 00:52:20;;;;;;;12.60;11.80;;;10.70;99.90;;;;;;4810747;29;20537;-42
2023/05/31 00:54:45;;;;;;;12.40;11.70;;;10.60;99.90;;;;;;4810767;29;20464;-45
2023/05/31 00:57:11;;;;;;;11.70;11.10;;;10.60;99.90;;;;;;4810689;29;20207;-43
2023/05/31 00:59:37;;;;;;;12.47;11.67;;;10.50;99.90;;;;;;4811534;29;20221;-45
2023/05/31 01:02:03;;;;;;;12.80;12.10;;;10.50;99.90;;;;;;4811132;29;20328;-42
2023/05/31 01:04:30;;;;;;;12.87;12.13;;;10.40;99.90;;;;;;4811224;29;20768;-42
2023/05/31 01:06:56;;;;;;;13.10;12.30;;;10.40;99.90;;;;;;4809879;29;20421;-46
2023/05/31 01:09:23;;;;;;;12.83;12.03;;;10.30;99.90;;;;;;4809302;29;20449;-43
2023/05/31 01:12:07;;;;;;;12.17;11.57;;;10.30;99.90;;;;;;4811156;29;20532;-44
2023/05/31 01:14:38;;;;;;;12.90;12.13;;;10.30;99.90;;;;;;4810487;29;20434;-44
2023/05/31 01:17:22;;;;;;;12.40;11.80;;;10.20;99.90;;;;;;4810948;29;20437;-44
2023/05/31 01:19:54;;;;;;;12.37;11.67;;;10.20;99.90;;;;;;4810287;29;20633;-45
2023/05/31 01:22:29;;;;;;;12.67;11.93;;;10.20;99.90;;;;;;4810683;29;20512;-46
2023/05/31 01:25:22;;;;;;;12.27;11.57;;;10.20;99.90;;;;;;4811215;29;20516;-44
2023/05/31 01:27:49;;;;;;;12.87;12.17;;;10.10;99.90;;;;;;4810946;29;20440;-42
2023/05/31 01:30:16;;;;;;;12.40;11.70;;;10.10;99.90;;;;;;4810461;29;21245;-43
2023/05/31 01:32:43;;;;;;;12.80;12.10;;;10.00;99.90;;;;;;4810907;29;20486;-43
2023/05/31 01:35:09;;;;;;;12.43;11.67;;;10.00;99.90;;;;;;4810183;29;20446;-45
2023/05/31 01:37:34;;;;;;;12.80;12.10;;;9.90;99.90;;;;;;4809966;29;20448;-47
2023/05/31 01:40:01;;;;;;;12.50;11.80;;;9.90;99.90;;;;;;4809414;29;20522;-41
2023/05/31 01:42:27;;;;;;;13.03;12.20;;;9.90;99.90;;;;;;4809121;29;20206;-42
2023/05/31 01:44:54;;;;;;;13.00;12.20;;;9.80;99.90;;;;;;4811161;29;20985;-48
2023/05/31 01:47:21;;;;;;;13.10;12.30;;;9.80;99.90;;;;;;4810456;29;20454;-43
2023/05/31 01:49:47;;;;;;;12.30;11.70;;;9.80;99.90;;;;;;4809973;29;21170;-49
2023/05/31 01:52:15;;;;;;;12.80;12.07;;;9.70;99.90;;;;;;4810485;29;20536;-43
2023/05/31 01:54:41;;;;;;;13.30;12.50;;;9.70;99.90;;;;;;4810565;29;20437;-45
2023/05/31 01:57:08;;;;;;;12.33;11.63;;;9.70;99.90;;;;;;4809360;29;20453;-44
2023/05/31 01:59:37;;;;;;;13.00;12.20;;;9.70;99.90;;;;;;4810373;29;20215;-42
2023/05/31 02:02:04;;;;;;;12.70;11.87;;;9.60;99.90;;;;;;4810687;29;20436;-46
2023/05/31 02:04:30;;;;;;;12.40;11.70;;;9.60;99.90;;;;;;4811022;29;20928;-43
2023/05/31 02:06:57;;;;;;;11.90;11.20;;;9.60;99.90;;;;;;4810027;29;20441;-46
2023/05/31 02:09:23;;;;;;;12.37;11.67;;;9.70;99.90;;;;;;4812453;29;20552;-43
2023/05/31 02:11:49;;;;;;;12.90;12.10;;;9.60;99.90;;;;;;4813326;29;21083;-43
2023/05/31 02:14:15;;;;;;;12.10;11.40;;;9.60;99.90;;;;;;4813361;29;20489;-44
2023/05/31 02:16:40;;;;;;;12.57;11.73;;;9.60;99.90;;;;;;4813885;29;20220;-48
2023/05/31 02:19:06;;;;;;;12.03;11.40;;;9.50;99.90;;;;;;4813886;29;20485;-47
2023/05/31 02:21:35;;;;;;;11.70;11.10;;;9.50;99.90;;;;;;4812932;29;20286;-41
2023/05/31 02:24:01;;;;;;;12.40;11.70;;;9.50;99.90;;;;;;4812855;29;20403;-44
2023/05/31 02:26:26;;;;;;;11.90;11.30;;;9.40;99.90;;;;;;4813594;29;20439;-43
2023/05/31 02:28:52;;;;;;;12.17;11.50;;;9.40;99.90;;;;;;4811415;29;20221;-45
2023/05/31 02:31:18;;;;;;;12.87;12.10;;;9.30;99.90;;;;;;4813769;29;20197;-43
2023/05/31 02:33:43;;;;;;;12.17;11.50;;;9.30;99.90;;;;;;4813758;29;20306;-46
2023/05/31 02:36:11;;;;;;;13.13;12.33;;;9.30;99.90;;;;;;4813295;29;20243;-44
2023/05/31 02:38:37;;;;;;;13.07;12.27;;;9.20;99.90;;;;;;4813175;29;20271;-44
2023/05/31 02:41:02;;;;;;;12.87;12.03;;;9.20;99.90;;;;;;4812247;29;20431;-43
2023/05/31 02:43:30;;;;;;;12.37;11.67;;;9.20;99.90;;;;;;4810939;29;20856;-41
2023/05/31 02:45:56;;;;;;;11.87;11.27;;;9.10;99.90;;;;;;4813506;29;20304;-43
2023/05/31 02:48:21;;;;;;;13.03;12.17;;;9.10;99.90;;;;;;4813120;29;20432;-45
2023/05/31 02:50:47;;;;;;;12.20;11.50;;;9.10;99.90;;;;;;4813407;29;20794;-42
2023/05/31 02:53:12;;;;;;;12.40;11.70;;;9.10;99.90;;;;;;4812812;29;20196;-42
2023/05/31 02:55:39;;;;;;;12.37;11.77;;;9.10;99.90;;;;;;4812266;29;20214;-42
2023/05/31 02:58:06;;;;;;;11.97;11.30;;;9.10;99.90;;;;;;4812271;29;20219;-43
2023/05/31 03:00:32;;;;;;;12.60;11.90;;;9.00;99.90;;;;;;4813078;29;20430;-45
2023/05/31 03:02:58;;;;;;;11.97;11.37;;;8.90;99.90;;;;;;4813031;29;20520;-43
2023/05/31 03:05:23;;;;;;;13.00;12.20;;;9.00;99.90;;;;;;4813575;29;20845;-43
2023/05/31 03:07:49;;;;;;;12.03;11.30;;;8.90;99.90;;;;;;4811748;29;20448;-44
2023/05/31 03:10:15;;;;;;;12.60;11.90;;;8.90;99.90;;;;;;4812958;29;20223;-44
2023/05/31 03:12:40;;;;;;;12.47;11.77;;;8.90;99.90;;;;;;4811946;29;20204;-43
2023/05/31 03:15:07;;;;;;;13.30;12.50;;;8.90;99.90;;;;;;4812990;29;20563;-43
2023/05/31 03:17:32;;;;;;;12.07;11.40;;;8.90;99.90;;;;;;4813200;29;20191;-41
2023/05/31 03:19:58;;;;;;;11.97;11.23;;;8.80;99.90;;;;;;4812550;29;20771;-42
2023/05/31 03:22:25;;;;;;;11.63;11.00;;;8.80;99.90;;;;;;4811445;29;20347;-42
2023/05/31 03:24:51;;;;;;;11.30;10.60;;;8.80;99.90;;;;;;4811962;29;20678;-43
2023/05/31 03:27:17;;;;;;;12.10;11.40;;;8.80;99.90;;;;;;4812541;29;20508;-45
2023/05/31 03:29:43;;;;;;;12.07;11.37;;;8.80;99.90;;;;;;4812662;29;20194;-43
2023/05/31 03:32:08;;;;;;;12.60;11.80;;;8.80;99.90;;;;;;4812583;29;20612;-42
2023/05/31 03:34:34;;;;;;;12.53;11.73;;;8.80;99.90;;;;;;4812969;29;20431;-42
2023/05/31 03:37:01;;;;;;;11.37;10.67;;;8.80;99.90;;;;;;4811425;29;20194;-42
2023/05/31 03:39:26;;;;;;;11.57;10.90;;;8.80;99.90;;;;;;4811351;29;20514;-45
2023/05/31 03:41:52;;;;;;;12.17;11.47;;;8.80;99.90;;;;;;4812295;29;20534;-42
2023/05/31 03:44:17;;;;;;;12.50;11.70;;;8.70;99.90;;;;;;4812341;29;20201;-43
2023/05/31 03:46:43;;;;;;;12.43;11.73;;;8.80;99.90;;;;;;4812832;29;20658;-44
2023/05/31 03:49:08;;;;;;;12.07;11.47;;;8.80;99.90;;;;;;4812134;29;20190;-45
2023/05/31 03:51:34;;;;;;;11.87;11.17;;;8.70;99.90;;;;;;4812128;29;20274;-43
2023/05/31 03:54:00;;;;;;;12.43;11.63;;;8.70;99.90;;;;;;4811724;29;20216;-42
2023/05/31 03:56:26;;;;;;;12.40;11.60;;;8.70;99.90;;;;;;4811069;29;20485;-44
2023/05/31 03:58:51;;;;;;;11.40;10.90;;;8.70;99.90;;;;;;4811302;29;20226;-42
2023/05/31 04:01:17;;;;;;;12.23;11.43;;;8.80;99.90;;;;;;4812208;29;20202;-42
2023/05/31 04:03:43;;;;;;;11.37;10.77;;;8.80;99.90;;;;;;4810640;29;20206;-44
2023/05/31 04:06:09;;;;;;;12.40;11.70;;;8.80;99.90;;;;;;4812210;29;20195;-46
2023/05/31 04:08:35;;;;;;;12.43;11.63;;;8.80;99.90;;;;;;4810869;29;20974;-50
2023/05/31 04:11:01;;;;;;;12.57;11.77;;;8.80;99.90;;;;;;4811975;29;20431;-51
2023/05/31 04:13:26;;;;;;;13.10;12.30;;;8.90;99.90;;;;;;4810534;29;20269;-49
2023/05/31 04:15:53;;;;;;;12.40;11.70;;;8.90;99.90;;;;;;4811831;29;20355;-48
2023/05/31 04:18:18;;;;;;;12.93;12.13;;;8.90;99.90;;;;;;4811616;29;20214;-52
2023/05/31 04:20:44;;;;;;;13.00;12.20;;;9.00;99.90;;;;;;4811243;29;20978;-51
2023/05/31 04:23:10;;;;;;;12.70;11.90;;;9.00;99.90;;;;;;4810465;29;20231;-47
2023/05/31 04:25:35;;;;;;;11.83;11.23;;;9.00;99.90;;;;;;4810715;29;20667;-42
2023/05/31 04:28:01;;;;;;;12.50;11.67;;;9.00;99.90;;;;;;4811181;29;20288;-47
2023/05/31 04:30:27;;;;;;;12.07;11.37;;;9.10;99.90;;;;;;4811465;29;20202;-51
2023/05/31 04:32:56;;;;;;;12.60;11.80;;;9.10;99.90;;;;;;4810887;29;20514;-52
2023/05/31 04:35:22;;;;;;;12.87;12.17;;;9.10;99.90;;;;;;4811579;29;20191;-43
2023/05/31 04:37:52;;;;;;;11.83;11.10;;;9.10;99.90;;;;;;4809082;29;20972;-47
2023/05/31 04:40:20;;;;;;;11.90;11.27;;;9.20;99.90;;;;;;4810126;29;20191;-48
2023/05/31 04:42:45;;;;;;;11.80;11.20;;;9.30;99.90;;;;;;4810304;29;20448;-49
2023/05/31 04:45:11;;;;;;;13.00;12.20;;;9.30;99.90;;;;;;4811603;29;20431;-52
2023/05/31 04:47:37;;;;;;;12.40;11.60;;;9.40;99.90;;;;;;4809719;29;20227;-49
2023/05/31 04:50:03;;;;;;;12.63;11.83;;;9.40;99.90;;;;;;4811559;29;20727;-50
2023/05/31 04:52:30;;;;;;;11.63;11.03;;;9.50;99.90;;;;;;4811229;29;20185;-49
2023/05/31 04:54:57;;;;;;;12.30;11.60;;;9.50;99.90;;;;;;4810333;29;20491;-47
2023/05/31 04:57:22;;;;;;;12.17;11.37;;;9.50;99.90;;;;;;4810440;29;20784;-49
2023/05/31 04:59:48;;;;;;;11.60;10.90;;;9.60;99.90;;;;;;4809163;29;20488;-50
2023/05/31 05:02:14;;;;;;;12.07;11.37;;;9.60;99.90;;;;;;4810071;29;20209;-49
2023/05/31 05:04:40;;;;;;;11.87;10.90;;;9.70;99.90;;;;;;4811148;29;20319;-50
2023/05/31 05:07:06;;;;;;;12.43;11.67;;;9.70;99.90;;;;;;4810082;29;20711;-46
2023/05/31 05:09:32;;;;;;;12.60;11.70;;;9.80;99.90;;;;;;4810394;29;20363;-51
2023/05/31 05:11:57;;;;;;;12.20;11.57;;;9.80;99.90;;;;;;4810375;29;20449;-53
2023/05/31 05:14:23;;;;;;;12.30;11.60;;;10.00;99.90;;;;;;4809541;29;20619;-47
2023/05/31 05:16:48;;;;;;;12.10;11.40;;;10.00;99.90;;;;;;4810650;29;20275;-43
2023/05/31 05:19:14;;;;;;;12.17;11.47;;;10.10;99.90;;;;;;4810964;29;20214;-47
2023/05/31 05:21:40;;;;;;;12.80;12.10;;;10.20;99.90;;;;;;4811304;29;20189;-41
2023/05/31 05:24:06;;;;;;;12.33;11.60;;;10.30;99.90;;;;;;4810800;29;20200;-44
2023/05/31 05:26:33;;;;;;;12.77;12.10;;;10.40;99.90;;;;;;4810179;29;20214;-43
2023/05/31 05:28:58;;;;;;;12.40;11.50;;;10.50;99.90;;;;;;4810154;29;20517;-44
2023/05/31 05:31:24;;;;;;;12.40;11.60;;;10.60;99.90;;;;;;4810754;29;20434;-41
2023/05/31 05:33:51;;;;;;;12.53;11.83;;;10.70;99.90;;;;;;4810075;29;20722;-42
2023/05/31 05:36:16;;;;;;;12.80;12.07;;;10.80;99.90;;;;;;4811630;29;20200;-42
2023/05/31 05:38:42;;;;;;;12.97;12.20;;;10.90;99.90;;;;;;4810547;29;20866;-45
2023/05/31 05:41:12;;;;;;;12.70;12.00;;;11.00;99.90;;;;;;4811171;29;20296;-43
2023/05/31 05:43:38;;;;;;;13.10;12.40;;;11.10;99.90;;;;;;4811406;29;20320;-44
2023/05/31 05:46:03;;;;;;;13.03;12.23;;;11.30;99.90;;;;;;4813630;29;20463;-44
2023/05/31 05:48:29;;;;;;;12.33;11.50;;;11.40;99.90;;;;;;4812913;29;20823;-42
2023/05/31 05:50:55;;;;;;;12.63;11.93;;;11.50;99.90;;;;;;4814240;29;20190;-41
2023/05/31 05:53:21;;;;;;;12.37;11.70;;;11.60;99.90;;;;;;4812760;29;20215;-47
2023/05/31 05:55:52;;;;;;;13.10;12.30;;;11.70;99.90;;;;;;4814285;29;20442;-48
2023/05/31 05:58:18;;;;;;;12.37;11.67;;;11.90;99.90;;;;;;4813483;29;20218;-48
2023/05/31 06:00:45;;;;;;;13.90;12.23;;;12.10;99.90;;;;;;4813886;29;20906;-48
2023/05/31 06:03:11;;;;;;;13.50;12.50;;;12.10;99.90;;;;;;4813361;29;20846;-49
2023/05/31 06:05:37;;;;;;;12.70;12.00;;;12.20;99.90;;;;;;4813060;29;20455;-44
2023/05/31 06:08:02;;;;;;;12.67;11.93;;;12.30;99.90;;;;;;4811862;29;20546;-43
2023/05/31 06:10:28;;;;;;;12.87;11.93;;;12.50;99.90;;;;;;4813933;29;20531;-43
2023/05/31 06:12:54;;;;;;;12.77;12.07;;;12.60;99.90;;;;;;4811744;29;20280;-42
2023/05/31 06:15:20;;;;;;;12.33;11.63;;;12.70;99.90;;;;;;4813613;29;20762;-42
2023/05/31 06:17:48;;;;;;;12.60;11.90;;;12.80;99.90;;;;;;4813016;29;20483;-43
2023/05/31 06:20:15;;;;;;;11.57;10.93;;;12.80;99.90;;;;;;4813099;29;20942;-44
2023/05/31 06:22:41;;;;;;;12.33;11.63;;;12.90;99.80;;;;;;4813547;29;20845;-46
2023/05/31 06:25:07;;;;;;;12.30;11.60;;;13.10;99.60;;;;;;4813131;29;20819;-43
2023/05/31 06:27:33;;;;;;;12.47;11.77;;;13.20;99.50;;;;;;4813820;29;20302;-48
2023/05/31 06:30:00;;;;;;;12.40;11.60;;;13.20;99.60;;;;;;4813591;29;20803;-43
2023/05/31 06:32:29;;;;;;;12.40;11.70;;;13.40;99.60;;;;;;4813131;29;20442;-46
2023/05/31 06:34:55;;;;;;;12.70;11.70;;;13.50;99.40;;;;;;4812467;29;20442;-48
2023/05/31 06:37:24;;;;;;;12.33;11.63;;;13.60;98.90;;;;;;4812139;29;20515;-42
2023/05/31 06:39:50;;;;;;;12.33;11.53;;;13.70;98.60;;;;;;4813086;29;20523;-45
2023/05/31 06:42:17;;;;;;;11.83;11.23;;;13.80;98.40;;;;;;4811708;29;20447;-44
2023/05/31 06:44:43;;;;;;;11.30;10.73;;;13.90;98.20;;;;;;4813109;29;20274;-43
2023/05/31 06:47:09;;;;;;;12.07;11.47;;;14.00;97.40;;;;;;4812873;29;20861;-45
2023/05/31 06:49:35;;;;;;;12.00;11.40;;;14.20;97.50;;;;;;4812190;29;20431;-43
2023/05/31 06:52:01;;;;;;;12.57;11.73;;;14.30;97.30;;;;;;4813249;29;20847;-46
2023/05/31 06:54:27;;;;;;;11.63;10.93;;;14.40;97.10;;;;;;4811681;29;20431;-43
2023/05/31 06:56:54;;;;;;;11.13;10.63;;;14.50;96.60;;;;;;4812185;29;20446;-45
2023/05/31 06:59:20;;;;;;;11.93;11.33;;;14.60;96.20;;;;;;4813401;29;20519;-43
2023/05/31 07:01:46;;;;;;;12.17;11.50;;;14.70;95.90;;;;;;4812820;29;20931;-44
2023/05/31 07:04:11;;;;;;;11.47;10.73;;;14.80;95.60;;;;;;4811988;29;20475;-44
2023/05/31 07:06:37;;;;;;;13.10;12.17;;;14.90;95.70;;;;;;4813138;29;20201;-43
2023/05/31 07:09:06;;;;;;;12.43;11.77;;;15.10;94.70;;;;;;4812674;29;20659;-43
2023/05/31 07:11:31;;;;;;;11.07;10.47;;;15.20;94.20;;;;;;4813265;29;20871;-46
2023/05/31 07:14:01;;;;;;;11.97;11.37;;;15.30;93.30;;;;;;4812003;29;20496;-42
2023/05/31 07:16:28;;;;;;;11.47;10.77;;;15.50;92.60;;;;;;4812643;29;20221;-45
2023/05/31 07:18:54;;;;;;;12.30;11.63;;;15.60;92.20;;;;;;4795037;29;20471;-44
2023/05/31 07:21:19;;;;;;;11.33;10.63;;;15.70;90.40;;;;;;4812577;29;20446;-46
2023/05/31 07:23:45;;;;;;;12.20;11.50;;;15.90;90.40;;;;;;4811578;29;20470;-46
2023/05/31 07:26:10;;;;;;;12.20;11.60;;;16.10;89.40;;;;;;4812827;29;20562;-44
2023/05/31 07:28:36;;;;;;;11.77;11.20;;;16.30;87.30;;;;;;4811505;29;20197;-45
2023/05/31 07:31:02;;;;;;;12.37;11.77;;;16.40;84.70;;;;;;4812342;29;20194;-47
2023/05/31 07:33:28;;;;;;;11.40;10.80;;;16.70;84.50;;;;;;4812388;29;20190;-46
2023/05/31 07:35:53;;;;;;;12.00;11.40;;;16.80;81.70;;;;;;4810345;29;20197;-53
2023/05/31 07:38:19;;;;;;;11.63;11.03;;;17.00;81.80;;;;;;4812105;29;20575;-50
2023/05/31 07:40:44;;;;;;;11.40;10.67;;;17.20;82.30;;;;;;4811458;29;20189;-49
2023/05/31 07:43:13;;;;;;;12.17;11.47;;;17.30;82.50;;;;;;4812401;29;20190;-50
2023/05/31 07:45:39;;;;;;;11.60;11.07;;;17.50;81.20;;;;;;4811076;29;20451;-49
2023/05/31 07:48:04;;;;;;;11.80;11.20;;;17.70;77.30;;;;;;4811800;29;20450;-47
2023/05/31 07:50:30;;;;;;;12.90;12.20;;;17.80;76.50;;;;;;4811848;29;20726;-48
2023/05/31 07:52:56;;;;;;;11.90;11.17;;;18.00;75.50;;;;;;4810756;29;20208;-45
2023/05/31 07:55:22;;;;;;;12.60;11.70;;;18.20;74.70;;;;;;4812066;29;20635;-52
2023/05/31 07:57:47;;;;;;;12.80;11.90;;;18.20;72.60;;;;;;4810929;29;20549;-50
2023/05/31 08:00:13;;;;;;;12.03;11.43;;;18.30;72.60;;;;;;4811223;29;20446;-45
2023/05/31 08:02:41;;;;;;;12.00;11.40;;;18.50;72.70;;;;;;4812034;29;20246;-49
2023/05/31 08:05:07;;;;;;;12.60;11.70;;;18.70;70.80;;;;;;4812093;29;20211;-46
2023/05/31 08:07:33;;;;;;;10.87;9.97;;;18.80;69.10;;;;;;4810683;29;20511;-45
2023/05/31 08:09:58;;;;;;;11.90;11.20;;;18.90;68.90;;;;;;4812192;29;20785;-48
2023/05/31 08:12:24;;;;;;;11.40;10.80;;;19.00;66.20;;;;;;4811275;29;20202;-49
2023/05/31 08:14:50;;;;;;;12.00;11.50;;;19.10;65.70;;;;;;4811024;29;20208;-47
2023/05/31 08:17:16;;;;;;;11.10;10.50;;;19.20;65.70;;;;;;4812157;29;20557;-47
2023/05/31 08:19:41;;;;;;;12.20;11.40;;;19.40;64.70;;;;;;4810626;29;20214;-52
2023/05/31 08:22:07;;;;;;;10.90;10.30;;;19.60;63.70;;;;;;4811252;29;20808;-49
2023/05/31 08:24:33;;;;;;;11.47;10.97;;;19.80;62.80;;;;;;4811907;29;20193;-51
2023/05/31 08:26:59;;;;;;;10.90;10.30;;;20.00;60.80;;;;;;4811805;29;20431;-48
2023/05/31 08:29:25;;;;;;;11.10;10.40;;;20.00;59.10;;;;;;4810926;29;20216;-48
2023/05/31 08:31:51;;;;;;;12.00;11.40;;;20.30;59.40;;;;;;4811766;29;20420;-44
2023/05/31 08:34:18;;;;;;;11.83;11.23;;;20.40;58.50;;;;;;4811156;29;20447;-49
2023/05/31 08:36:44;;;;;;;11.20;10.70;;;20.70;58.20;;;;;;4811828;29;20661;-47
2023/05/31 08:39:10;;;;;;;11.90;11.00;;;20.90;57.20;;;;;;4810369;29;20471;-50
2023/05/31 08:42:02;;;;;;;10.53;10.03;;;21.10;54.10;;;;;;4811689;29;20427;-52
2023/05/31 08:44:29;;;;;;;11.63;11.03;;;21.20;53.40;;;;;;4789821;29;20272;-49
2023/05/31 08:47:08;;;;;;;11.97;11.20;;;21.40;53.10;;;;;;4811612;29;20426;-53
2023/05/31 08:49:36;;;;;;;10.70;10.10;;;21.70;50.60;;;;;;4810255;29;20472;-50
2023/05/31 08:52:01;;;;;;;10.70;10.20;;;21.90;49.20;;;;;;4808774;29;20977;-49
2023/05/31 08:54:28;;;;;;;11.20;10.70;;;22.10;51.20;;;;;;4809997;29;20769;-50
2023/05/31 08:56:54;;;;;;;12.10;11.20;;;22.40;49.10;;;;;;4810796;29;20436;-43
2023/05/31 08:59:20;;;;;;;11.00;10.40;;;22.70;48.10;;;;;;4810667;29;20474;-48
2023/05/31 09:01:47;;;;;;;11.20;10.60;;;23.00;47.20;;;;;;4811341;29;20431;-50
2023/05/31 09:04:15;;;;;;;9.83;9.43;;;23.40;47.80;;;;;;4810220;29;20435;-53
2023/05/31 09:06:40;;;;;;;11.00;10.40;;;23.70;45.00;;;;;;4811468;29;20584;-50
2023/05/31 09:09:09;;;;;;;10.80;10.20;;;23.90;46.20;;;;;;4809107;29;20536;-56
2023/05/31 09:11:40;;;;;;;10.87;10.07;;;24.20;45.50;;;;;;4810445;29;20672;-49
2023/05/31 09:14:09;;;;;;;10.47;9.97;;;24.50;43.50;;;;;;4811277;29;20880;-49
2023/05/31 09:16:35;;;;;;;11.20;10.70;;;24.90;41.90;;;;;;4794513;29;20526;-49
2023/05/31 09:19:03;;;;;;;10.83;10.33;;;25.40;40.10;;;;;;4810805;29;20518;-43
2023/05/31 09:21:29;;;;;;;10.83;10.33;;;25.80;39.60;;;;;;4811036;29;20758;-46
2023/05/31 09:23:56;;;;;;;10.90;10.40;;;26.40;38.50;;;;;;4810260;29;20596;-45
2023/05/31 09:26:23;;;;;;;11.13;10.37;;;27.00;36.60;;;;;;4810322;29;20437;-47
2023/05/31 09:28:53;;;;;;;11.13;10.53;;;27.30;33.80;;;;;;4810285;29;21024;-50
2023/05/31 09:31:19;;;;;;;10.73;10.13;;;27.80;32.00;;;;;;4811271;29;20547;-50
2023/05/31 09:33:47;;;;;;;10.53;10.13;;;28.30;30.20;;;;;;4810384;29;20459;-45
2023/05/31 09:36:14;;;;;;;10.50;10.10;;;28.70;29.40;;;;;;4810727;29;20511;-46
2023/05/31 09:38:40;;;;;;;10.70;10.30;;;29.00;27.30;;;;;;4810125;29;20474;-49
2023/05/31 09:41:17;;;;;;;11.33;10.77;;;29.20;26.00;;;;;;4809665;29;20439;-49
2023/05/31 09:43:45;;;;;;;11.30;10.70;;;29.70;25.70;;;;;;4810009;29;20455;-45
2023/05/31 09:46:17;;;;;;;11.00;10.50;;;30.00;25.90;;;;;;4810274;29;20419;-46
2023/05/31 09:48:44;;;;;;;10.37;9.97;;;30.30;25.20;;;;;;4810493;29;20471;-50
2023/05/31 09:51:12;;;;;;;10.63;10.13;;;30.50;23.70;;;;;;4810175;29;20455;-48
2023/05/31 09:53:40;;;;;;;10.70;10.20;;;30.70;23.00;;;;;;4810531;29;20852;-47
2023/05/31 09:56:18;;;;;;;10.00;9.60;;;30.90;22.30;;;;;;4810659;29;20445;-47
2023/05/31 09:58:44;;;;;;;10.30;9.80;;;31.00;21.50;;;;;;4810995;29;20482;-46
2023/05/31 10:01:10;;;;;;;10.57;10.07;;;31.20;21.10;;;;;;4810772;29;20415;-45
2023/05/31 10:03:37;;;;;;;11.03;10.53;;;31.60;21.90;;;;;;4809642;29;20426;-46
2023/05/31 10:06:03;;;;;;;11.10;10.60;;;32.00;21.50;;;;;;4810408;29;20186;-46
2023/05/31 10:08:32;;;;;;;10.60;9.83;;;32.30;19.70;;;;;;4810250;29;20431;-43
2023/05/31 10:11:02;;;;;;;10.00;9.50;;;32.70;19.80;;;;;;4810526;29;20960;-45
2023/05/31 10:13:28;;;;;;;10.73;10.33;;;32.90;19.20;;;;;;4808927;29;20533;-48
2023/05/31 10:15:56;;;;;;;10.93;10.43;;;33.30;18.90;;;;;;4810680;29;20461;-48
2023/05/31 10:18:28;;;;;;;10.73;10.23;;;33.60;17.50;;;;;;4810609;29;20478;-45
2023/05/31 10:21:03;;;;;;;10.77;10.27;;;33.90;18.00;;;;;;4810734;29;20771;-48
2023/05/31 10:23:30;;;;;;;9.90;9.50;;;34.20;16.90;;;;;;4809473;29;20481;-49
2023/05/31 10:26:13;;;;;;;11.30;10.73;;;34.60;16.60;;;;;;4808836;29;20461;-46
2023/05/31 10:28:48;;;;;;;10.73;10.23;;;35.00;16.80;;;;;;4811121;29;20423;-45
2023/05/31 10:31:14;;;;;;;10.90;10.40;;;35.20;16.20;;;;;;4813323;29;20926;-46
2023/05/31 10:33:47;;;;;;;10.03;9.63;;;35.40;15.60;;;;;;4812037;29;20609;-49
2023/05/31 10:36:13;;;;;;;9.93;9.43;;;35.50;15.60;;;;;;4813598;29;20570;-45
2023/05/31 10:38:47;;;;;;;10.67;10.17;;;35.60;15.30;;;;;;4811660;29;20623;-47
2023/05/31 10:41:19;;;;;;;10.77;10.27;;;35.60;14.70;;;;;;4813492;29;20469;-47
2023/05/31 10:43:58;;;;;;;10.50;10.10;;;35.50;14.50;;;;;;4813838;29;20753;-50
2023/05/31 10:46:30;;;;;;;11.80;11.00;;;35.50;14.70;;;;;;4813355;29;20498;-51
2023/05/31 10:48:58;;;;;;;11.30;10.80;;;35.80;14.20;;;;;;4812583;29;20491;-47
2023/05/31 10:51:46;;;;;;;11.20;10.70;;;35.80;14.70;;;;;;4812574;29;20446;-49
2023/05/31 10:54:27;;;;;;;11.80;11.30;;;36.20;14.70;;;;;;4813427;29;20553;-46
2023/05/31 10:56:54;;;;;;;11.23;10.63;;;36.40;14.00;;;;;;4812628;29;20977;-47
2023/05/31 10:59:19;;;;;;;10.13;9.73;;;36.20;13.70;;;;;;4813163;29;20474;-50
2023/05/31 11:01:46;;;;;;;11.80;11.20;;;36.30;12.90;;;;;;4812249;29;20450;-51
2023/05/31 11:04:25;;;;;;;11.43;10.93;;;36.30;13.80;;;;;;4813152;29;20801;-47
2023/05/31 11:07:11;;;;;;;11.83;11.33;;;36.40;13.40;;;;;;4811791;29;20426;-48
2023/05/31 11:09:39;;;;;;;11.50;11.10;;;36.50;13.30;;;;;;4812389;29;20495;-49
2023/05/31 11:12:05;;;;;;;11.07;10.67;;;36.80;13.10;;;;;;4811982;29;20457;-53
2023/05/31 11:14:32;;;;;;;12.00;11.40;;;36.80;13.20;;;;;;4811378;29;20495;-52
2023/05/31 11:17:03;;;;;;;11.97;11.47;;;36.90;13.00;;;;;;4813292;29;20911;-49
2023/05/31 11:19:29;;;;;;;11.67;11.17;;;37.30;13.20;;;;;;4812824;29;20460;-53
2023/05/31 11:21:59;;;;;;;12.10;11.60;;;37.30;12.50;;;;;;4812711;29;20504;-51
2023/05/31 11:24:31;;;;;;;11.90;11.40;;;37.40;12.70;;;;;;4811895;29;20484;-51
2023/05/31 11:26:59;;;;;;;11.40;11.00;;;37.30;11.90;;;;;;4812293;29;20451;-50
2023/05/31 11:29:48;;;;;;;11.07;10.57;;;37.20;12.30;;;;;;4812800;29;20478;-53
2023/05/31 11:32:15;;;;;;;11.73;11.23;;;37.20;12.40;;;;;;4808244;29;20518;-50
2023/05/31 11:34:57;;;;;;;11.37;10.87;;;37.40;12.60;;;;;;4813147;29;20895;-51
2023/05/31 11:37:27;;;;;;;11.50;11.00;;;37.20;11.70;;;;;;4811535;29;20494;-51
2023/05/31 11:39:59;;;;;;;11.63;10.90;;;37.00;12.50;;;;;;4812307;29;20427;-50
2023/05/31 11:42:30;;;;;;;10.40;10.00;;;37.10;12.80;;;;;;4809997;29;20534;-49
2023/05/31 11:44:56;;;;;;;11.17;10.77;;;36.90;12.10;;;;;;4811193;29;20487;-49
2023/05/31 11:47:26;;;;;;;10.77;10.37;;;37.10;12.80;;;;;;4811883;29;20588;-50
2023/05/31 11:49:52;;;;;;;11.07;10.57;;;37.10;12.40;;;;;;4811706;29;20478;-51
2023/05/31 11:52:20;;;;;;;10.50;10.00;;;36.90;11.50;;;;;;4812744;29;20650;-52
2023/05/31 11:54:50;;;;;;;11.03;10.63;;;36.90;12.30;;;;;;4812745;29;20910;-49
2023/05/31 11:57:17;;;;;;;11.10;10.70;;;37.10;12.30;;;;;;4812411;29;20483;-55
2023/05/31 11:59:43;;;;;;;11.20;10.70;;;37.10;11.50;;;;;;4811118;29;20764;-50
2023/05/31 12:02:10;;;;;;;11.00;10.50;;;36.80;10.30;;;;;;4812252;29;21041;-50
2023/05/31 12:04:42;;;;;;;10.50;10.10;;;36.60;11.50;;;;;;4810583;29;20442;-50
2023/05/31 12:07:14;;;;;;;10.80;10.40;;;36.60;12.30;;;;;;4812342;29;20794;-54
2023/05/31 12:09:40;;;;;;;11.23;10.73;;;37.00;11.80;;;;;;4809370;29;20487;-50
2023/05/31 12:12:06;;;;;;;11.20;10.70;;;37.50;11.50;;;;;;4811884;29;20808;-52
2023/05/31 12:14:32;;;;;;;11.83;11.20;;;37.70;10.60;;;;;;4811866;29;20189;-51
2023/05/31 12:17:03;;;;;;;11.03;10.53;;;37.90;10.40;;;;;;4810995;29;20447;-49
2023/05/31 12:19:29;;;;;;;10.80;10.40;;;37.90;10.00;;;;;;4812078;29;20590;-52
2023/05/31 12:21:55;;;;;;;10.80;10.30;;;37.50;10.50;;;;;;4810554;29;20479;-50
2023/05/31 12:24:21;;;;;;;11.27;10.87;;;37.60;10.50;;;;;;4811683;29;20479;-48
2023/05/31 12:26:51;;;;;;;11.50;11.10;;;37.80;10.50;;;;;;4811745;29;20228;-54
2023/05/31 12:29:17;;;;;;;11.60;11.10;;;37.80;10.00;;;;;;4811973;29;20217;-53
2023/05/31 12:31:45;;;;;;;11.00;10.43;;;37.90;9.70;;;;;;4809461;29;20849;-49